Wetterstation Vordersexau
Wetterdaten: Woche 02.05.16 - 08.05.16 (KW18)
Datum Zeit Temp. A. Feuchte A. Luftdruck Regen Wind Richtung Taupunkt Windchill Windben
02.05.2016 00:00 7,9 C 86 % 1020,9 hPa 0,0 l/m 0,0 km/h N 5,7 C 7,9 C 0,0 km/h
02.05.2016 01:00 7,1 C 86 % 1020,5 hPa 0,0 l/m 0,0 km/h N-NO 4,9 C 7,1 C 0,0 km/h
02.05.2016 02:00 6,7 C 86 % 1020,6 hPa 0,0 l/m 0,0 km/h NO 4,5 C 6,7 C 0,0 km/h
02.05.2016 03:00 6,1 C 86 % 1020,2 hPa 0,0 l/m 0,0 km/h NO 3,9 C 6,1 C 0,0 km/h
02.05.2016 04:00 6,4 C 85 % 1020,7 hPa 0,0 l/m 0,0 km/h NO 4,1 C 6,4 C 0,0 km/h
02.05.2016 05:00 5,9 C 85 % 1020,4 hPa 0,0 l/m 0,0 km/h NO 3,6 C 5,9 C 0,0 km/h
02.05.2016 06:00 5,2 C 85 % 1020,5 hPa 0,0 l/m 0,0 km/h N-NO 2,9 C 5,2 C 0,0 km/h
02.05.2016 07:00 7,3 C 75 % 1020,7 hPa 0,0 l/m 0,0 km/h N-NO 3,2 C 7,3 C 0,0 km/h
02.05.2016 08:00 12,8 C 81 % 1020,8 hPa 0,0 l/m 0,0 km/h W-NW 9,6 C 12,8 C 0,0 km/h
02.05.2016 09:00 14,5 C 75 % 1020,5 hPa 0,0 l/m 1,9 km/h W-NW 10,1 C 14,5 C 1,1 km/h
02.05.2016 10:00 16,4 C 70 % 1020,5 hPa 0,0 l/m 1,3 km/h W-NW 10,9 C 16,4 C 0,7 km/h
02.05.2016 11:00 16,6 C 71 % 1020,1 hPa 0,0 l/m 3,2 km/h W-NW 11,3 C 16,6 C 1,8 km/h
02.05.2016 12:00 18,9 C 65 % 1019,5 hPa 0,0 l/m 0,0 km/h W-NW 12,2 C 18,9 C 0,0 km/h
02.05.2016 13:00 21,2 C 57 % 1019,1 hPa 0,0 l/m 1,9 km/h W-NW 12,3 C 21,2 C 1,1 km/h
02.05.2016 14:00 22,0 C 51 % 1018,5 hPa 0,0 l/m 18,8 km/h N-NO 11,4 C 19,0 C 10,4 km/h
02.05.2016 15:00 21,6 C 50 % 1018,2 hPa 0,0 l/m 0,0 km/h N-NO 10,7 C 21,6 C 0,0 km/h
02.05.2016 16:00 21,9 C 48 % 1017,8 hPa 0,0 l/m 2,6 km/h N-NW 10,4 C 21,9 C 1,4 km/h
02.05.2016 17:00 20,1 C 47 % 1017,2 hPa 0,0 l/m 0,0 km/h NO 8,4 C 20,1 C 0,0 km/h
02.05.2016 18:00 21,6 C 44 % 1017,1 hPa 0,0 l/m 24,0 km/h N-NO 8,8 C 17,7 C 13,3 km/h
02.05.2016 19:00 20,1 C 44 % 1017,0 hPa 0,0 l/m 0,0 km/h N-NO 7,5 C 20,1 C 0,0 km/h
02.05.2016 20:00 13,2 C 63 % 1017,3 hPa 0,0 l/m 0,0 km/h O-SO 6,3 C 13,2 C 0,0 km/h
02.05.2016 21:00 10,2 C 74 % 1017,6 hPa 0,0 l/m 0,0 km/h SO 5,8 C 10,2 C 0,0 km/h
02.05.2016 22:00 8,5 C 80 % 1017,9 hPa 0,0 l/m 0,0 km/h O-NO 5,3 C 8,5 C 0,0 km/h
02.05.2016 23:00 7,8 C 82 % 1018,3 hPa 0,0 l/m 0,0 km/h SO 4,9 C 7,8 C 0,0 km/h
03.05.2016 00:00 6,7 C 84 % 1018,2 hPa 0,0 l/m 0,0 km/h O-SO 4,2 C 6,7 C 0,0 km/h
03.05.2016 01:00 6,3 C 85 % 1017,9 hPa 0,0 l/m 0,0 km/h NO 4,0 C 6,3 C 0,0 km/h
03.05.2016 02:00 6,8 C 86 % 1017,6 hPa 0,0 l/m 0,0 km/h O-SO 4,6 C 6,8 C 0,0 km/h
03.05.2016 03:00 6,6 C 86 % 1017,8 hPa 0,0 l/m 0,0 km/h O 4,4 C 6,6 C 0,0 km/h
03.05.2016 04:00 5,8 C 86 % 1017,9 hPa 0,0 l/m 0,0 km/h SO 3,6 C 5,8 C 0,0 km/h
03.05.2016 05:00 4,7 C 86 % 1018,0 hPa 0,0 l/m 0,0 km/h SO 2,6 C 4,7 C 0,0 km/h
03.05.2016 06:00 5,1 C 86 % 1018,2 hPa 0,0 l/m 0,0 km/h SO 3,0 C 5,1 C 0,0 km/h
03.05.2016 07:00 9,4 C 77 % 1018,3 hPa 0,0 l/m 0,0 km/h O-NO 5,6 C 9,4 C 0,0 km/h
03.05.2016 08:00 11,1 C 82 % 1018,5 hPa 0,0 l/m 0,0 km/h W-NW 8,1 C 11,1 C 0,0 km/h
03.05.2016 09:00 16,4 C 72 % 1018,9 hPa 0,0 l/m 0,0 km/h W 11,3 C 16,4 C 0,0 km/h
03.05.2016 10:00 17,5 C 64 % 1019,0 hPa 0,0 l/m 0,0 km/h W-NW 10,6 C 17,5 C 0,0 km/h
03.05.2016 11:00 19,6 C 53 % 1018,7 hPa 0,0 l/m 2,6 km/h N-NO 9,8 C 19,6 C 1,4 km/h
03.05.2016 12:00 14,3 C 68 % 1019,6 hPa 0,0 l/m 7,8 km/h N-NO 8,5 C 13,5 C 4,3 km/h
03.05.2016 13:00 11,1 C 78 % 1020,2 hPa 0,0 l/m 0,0 km/h NW 7,4 C 11,1 C 0,0 km/h
03.05.2016 14:00 9,6 C 83 % 1020,9 hPa 0,8 l/m 3,2 km/h S 6,9 C 9,6 C 1,8 km/h
03.05.2016 15:00 10,1 C 85 % 1020,9 hPa 2,1 l/m 0,0 km/h S-SO 7,7 C 10,1 C 0,0 km/h
03.05.2016 16:00 15,6 C 67 % 1021,0 hPa 0,0 l/m 0,0 km/h S 9,5 C 15,6 C 0,0 km/h
03.05.2016 17:00 11,3 C 76 % 1021,4 hPa 0,0 l/m 0,0 km/h SW 7,2 C 11,3 C 0,0 km/h
03.05.2016 18:00 15,8 C 59 % 1021,4 hPa 0,0 l/m 0,0 km/h S-SO 7,8 C 15,8 C 0,0 km/h
03.05.2016 19:00 7,6 C 79 % 1022,2 hPa 3,3 l/m 0,0 km/h S-SO 4,2 C 7,6 C 0,0 km/h
03.05.2016 20:00 7,3 C 82 % 1023,1 hPa 0,0 l/m 0,0 km/h SO 4,4 C 7,3 C 0,0 km/h
03.05.2016 21:00 6,9 C 84 % 1024,0 hPa 0,0 l/m 0,0 km/h SO 4,4 C 6,9 C 0,0 km/h
03.05.2016 22:00 6,3 C 85 % 1024,3 hPa 0,0 l/m 0,0 km/h SO 4,0 C 6,3 C 0,0 km/h
03.05.2016 23:00 4,8 C 86 % 1024,1 hPa 0,0 l/m 0,0 km/h SO 2,7 C 4,8 C 0,0 km/h
04.05.2016 00:00 3,9 C 86 % 1024,6 hPa 0,0 l/m 0,0 km/h SO 1,8 C 3,9 C 0,0 km/h
04.05.2016 01:00 3,6 C 86 % 1024,8 hPa 0,0 l/m 0,0 km/h O-NO 1,5 C 3,6 C 0,0 km/h
04.05.2016 02:00 3,3 C 87 % 1024,5 hPa 0,0 l/m 0,0 km/h O-NO 1,3 C 3,3 C 0,0 km/h
04.05.2016 03:00 2,8 C 86 % 1024,7 hPa 0,0 l/m 0,0 km/h O-NO 0,7 C 2,8 C 0,0 km/h
04.05.2016 04:00 2,1 C 86 % 1024,6 hPa 0,0 l/m 0,0 km/h O-NO 0,0 C 2,1 C 0,0 km/h
04.05.2016 05:00 1,6 C 86 % 1024,9 hPa 0,0 l/m 0,0 km/h O-NO -0,5 C 1,6 C 0,0 km/h
04.05.2016 06:00 1,8 C 86 % 1025,1 hPa 0,0 l/m 0,0 km/h O-NO -0,3 C 1,8 C 0,0 km/h
04.05.2016 07:00 6,1 C 70 % 1025,4 hPa 0,4 l/m 0,0 km/h SO 1,0 C 6,1 C 0,0 km/h
04.05.2016 08:00 13,6 C 77 % 1025,2 hPa 0,0 l/m 0,0 km/h NW 9,6 C 13,6 C 0,0 km/h
04.05.2016 09:00 15,9 C 64 % 1025,0 hPa 0,0 l/m 0,0 km/h W-NW 9,1 C 15,9 C 0,0 km/h
04.05.2016 10:00 17,4 C 63 % 1024,7 hPa 0,0 l/m 1,9 km/h W-NW 10,3 C 17,4 C 1,1 km/h
04.05.2016 11:00 17,8 C 59 % 1024,4 hPa 0,0 l/m 2,6 km/h W-NW 9,7 C 17,8 C 1,4 km/h
04.05.2016 12:00 17,6 C 55 % 1024,1 hPa 0,0 l/m 20,7 km/h N-NW 8,5 C 13,0 C 11,5 km/h
04.05.2016 13:00 19,5 C 51 % 1023,5 hPa 0,0 l/m 4,5 km/h N-NW 9,1 C 19,5 C 2,5 km/h
04.05.2016 14:00 20,4 C 47 % 1023,0 hPa 0,0 l/m 9,7 km/h N-NW 8,7 C 19,2 C 5,4 km/h
04.05.2016 15:00 19,9 C 43 % 1022,3 hPa 0,0 l/m 7,1 km/h N-NO 6,9 C 19,6 C 4,0 km/h
04.05.2016 16:00 21,4 C 37 % 1022,2 hPa 0,0 l/m 0,0 km/h N-NW 6,1 C 21,4 C 0,0 km/h
04.05.2016 17:00 22,9 C 35 % 1021,7 hPa 0,0 l/m 15,6 km/h NO 6,6 C 20,7 C 8,6 km/h
04.05.2016 18:00 22,1 C 34 % 1021,9 hPa 0,0 l/m 9,1 km/h N-NO 5,5 C 21,2 C 5,0 km/h
04.05.2016 19:00 17,2 C 40 % 1021,8 hPa 0,0 l/m 0,0 km/h N-NO 3,5 C 17,2 C 0,0 km/h
04.05.2016 20:00 12,8 C 50 % 1022,0 hPa 0,0 l/m 0,0 km/h O-SO 2,6 C 12,8 C 0,0 km/h
04.05.2016 21:00 8,3 C 62 % 1022,1 hPa 0,0 l/m 0,0 km/h O 1,5 C 8,3 C 0,0 km/h
04.05.2016 22:00 7,1 C 69 % 1022,3 hPa 0,0 l/m 0,0 km/h O 1,8 C 7,1 C 0,0 km/h
04.05.2016 23:00 10,1 C 54 % 1022,1 hPa 0,0 l/m 0,0 km/h NO 1,2 C 10,1 C 0,0 km/h
05.05.2016 00:00 9,4 C 53 % 1021,8 hPa 0,0 l/m 0,0 km/h NO 0,3 C 9,4 C 0,0 km/h
05.05.2016 01:00 9,5 C 52 % 1021,4 hPa 0,0 l/m 0,0 km/h O-SO 0,1 C 9,5 C 0,0 km/h
05.05.2016 02:00 8,9 C 53 % 1021,0 hPa 0,0 l/m 0,0 km/h O-SO -0,1 C 8,9 C 0,0 km/h
05.05.2016 03:00 8,5 C 53 % 1021,0 hPa 0,0 l/m 0,0 km/h O-SO -0,5 C 8,5 C 0,0 km/h
05.05.2016 04:00 7,6 C 55 % 1021,0 hPa 0,0 l/m 0,0 km/h S-SO -0,9 C 7,6 C 0,0 km/h
05.05.2016 05:00 3,5 C 66 % 1020,9 hPa 0,0 l/m 0,0 km/h S-SO -2,2 C 3,5 C 0,0 km/h
05.05.2016 06:00 3,7 C 71 % 1020,3 hPa 0,0 l/m 2,6 km/h S-SO -1,1 C 3,7 C 1,4 km/h
05.05.2016 07:00 7,8 C 76 % 1020,1 hPa 0,0 l/m 0,0 km/h O-NO 3,8 C 7,8 C 0,0 km/h
05.05.2016 08:00 17,1 C 49 % 1019,7 hPa 0,0 l/m 0,0 km/h S-SO 6,3 C 17,1 C 0,0 km/h
05.05.2016 09:00 20,4 C 40 % 1019,2 hPa 0,0 l/m 0,0 km/h N-NO 6,3 C 20,4 C 0,0 km/h
05.05.2016 10:00 22,1 C 32 % 1018,5 hPa 0,0 l/m 0,0 km/h SO 4,6 C 22,1 C 0,0 km/h
05.05.2016 11:00 20,4 C 34 % 1018,0 hPa 0,0 l/m 7,8 km/h SO 4,0 C 19,8 C 4,3 km/h
05.05.2016 12:00 21,2 C 35 % 1017,4 hPa 0,0 l/m 27,9 km/h SO 5,1 C 16,6 C 15,5 km/h
05.05.2016 13:00 22,7 C 33 % 1016,9 hPa 0,0 l/m 0,0 km/h N 5,6 C 22,7 C 0,0 km/h
05.05.2016 14:00 23,8 C 32 % 1016,0 hPa 0,0 l/m 0,0 km/h N-NO 6,1 C 23,8 C 0,0 km/h
05.05.2016 15:00 24,4 C 31 % 1015,4 hPa 0,0 l/m 0,0 km/h O-SO 6,2 C 24,4 C 0,0 km/h
05.05.2016 16:00 28,3 C 29 % 1015,0 hPa 0,0 l/m 0,0 km/h S-SO 8,5 C 28,3 C 0,0 km/h
05.05.2016 17:00 28,9 C 27 % 1014,7 hPa 0,0 l/m 9,7 km/h O-SO 8,0 C 28,5 C 5,4 km/h
05.05.2016 18:00 29,4 C 26 % 1014,1 hPa 0,0 l/m 0,0 km/h O-SO 7,9 C 29,4 C 0,0 km/h
05.05.2016 19:00 22,0 C 34 % 1013,9 hPa 0,0 l/m 0,0 km/h O-SO 5,4 C 22,0 C 0,0 km/h
05.05.2016 20:00 15,9 C 45 % 1014,0 hPa 0,0 l/m 0,0 km/h O 4,0 C 15,9 C 0,0 km/h
05.05.2016 21:00 12,3 C 57 % 1014,2 hPa 0,0 l/m 0,0 km/h O-SO 4,0 C 12,3 C 0,0 km/h
05.05.2016 22:00 10,1 C 67 % 1014,1 hPa 0,0 l/m 0,0 km/h SO 4,3 C 10,1 C 0,0 km/h
05.05.2016 23:00 8,3 C 73 % 1014,0 hPa 0,0 l/m 0,0 km/h O-SO 3,8 C 8,3 C 0,0 km/h
06.05.2016 00:00 7,4 C 76 % 1014,0 hPa 0,0 l/m 0,0 km/h O 3,5 C 7,4 C 0,0 km/h
06.05.2016 01:00 7,6 C 80 % 1013,9 hPa 0,0 l/m 0,0 km/h NO 4,4 C 7,6 C 0,0 km/h
06.05.2016 02:00 8,3 C 80 % 1014,0 hPa 0,0 l/m 0,0 km/h NO 5,1 C 8,3 C 0,0 km/h
06.05.2016 03:00 6,7 C 82 % 1014,4 hPa 0,0 l/m 0,0 km/h NO 3,8 C 6,7 C 0,0 km/h
06.05.2016 04:00 5,9 C 84 % 1014,3 hPa 0,0 l/m 0,0 km/h NO 3,4 C 5,9 C 0,0 km/h
06.05.2016 05:00 5,2 C 84 % 1014,4 hPa 0,0 l/m 0,0 km/h O-SO 2,7 C 5,2 C 0,0 km/h
06.05.2016 06:00 6,5 C 85 % 1014,0 hPa 0,0 l/m 0,0 km/h SO 4,2 C 6,5 C 0,0 km/h
06.05.2016 07:00 11,1 C 85 % 1014,4 hPa 0,0 l/m 0,0 km/h S 8,7 C 11,1 C 0,0 km/h
06.05.2016 08:00 20,4 C 56 % 1014,6 hPa 0,0 l/m 0,0 km/h O-SO 11,3 C 20,4 C 0,0 km/h
06.05.2016 09:00 22,4 C 48 % 1014,1 hPa 0,0 l/m 0,0 km/h W-SW 10,8 C 22,4 C 0,0 km/h
06.05.2016 10:00 24,2 C 43 % 1013,9 hPa 0,0 l/m 1,9 km/h SW 10,8 C 24,2 C 1,1 km/h
06.05.2016 11:00 23,9 C 47 % 1013,1 hPa 0,0 l/m 1,3 km/h W 11,9 C 23,9 C 0,7 km/h
06.05.2016 12:00 24,8 C 40 % 1012,5 hPa 0,0 l/m 13,0 km/h W 10,3 C 23,4 C 7,2 km/h
06.05.2016 13:00 25,9 C 40 % 1011,9 hPa 0,0 l/m 3,2 km/h W 11,3 C 25,9 C 1,8 km/h
06.05.2016 14:00 27,0 C 37 % 1010,9 hPa 0,0 l/m 13,0 km/h W 11,1 C 26,0 C 7,2 km/h
06.05.2016 15:00 27,1 C 39 % 1010,2 hPa 0,0 l/m 3,2 km/h W-NW 11,9 C 27,1 C 1,8 km/h
06.05.2016 16:00 29,2 C 34 % 1009,6 hPa 0,0 l/m 2,6 km/h W-NW 11,7 C 29,2 C 1,4 km/h
06.05.2016 17:00 31,4 C 29 % 1009,1 hPa 0,0 l/m 0,0 km/h W-NW 11,2 C 31,4 C 0,0 km/h
06.05.2016 18:00 30,4 C 30 % 1008,7 hPa 0,0 l/m 0,0 km/h W 10,9 C 30,4 C 0,0 km/h
06.05.2016 19:00 23,9 C 40 % 1008,7 hPa 0,0 l/m 0,6 km/h S-SO 9,5 C 23,9 C 0,4 km/h
06.05.2016 20:00 17,6 C 55 % 1008,9 hPa 0,0 l/m 0,0 km/h O-SO 8,5 C 17,6 C 0,0 km/h
06.05.2016 21:00 14,4 C 66 % 1009,4 hPa 0,0 l/m 0,0 km/h SO 8,1 C 14,4 C 0,0 km/h
06.05.2016 22:00 12,3 C 69 % 1009,6 hPa 0,0 l/m 0,0 km/h O-SO 6,8 C 12,3 C 0,0 km/h
06.05.2016 23:00 10,9 C 73 % 1009,3 hPa 0,0 l/m 0,0 km/h O 6,3 C 10,9 C 0,0 km/h
07.05.2016 00:00 10,2 C 72 % 1009,4 hPa 0,0 l/m 0,0 km/h O-NO 5,4 C 10,2 C 0,0 km/h
07.05.2016 01:00 9,8 C 74 % 1009,4 hPa 0,0 l/m 0,0 km/h O 5,4 C 9,8 C 0,0 km/h
07.05.2016 02:00 8,7 C 77 % 1009,4 hPa 0,0 l/m 0,0 km/h S-SO 4,9 C 8,7 C 0,0 km/h
07.05.2016 03:00 7,9 C 79 % 1009,6 hPa 0,0 l/m 0,0 km/h O 4,5 C 7,9 C 0,0 km/h
07.05.2016 04:00 7,7 C 81 % 1009,7 hPa 0,0 l/m 0,0 km/h O-NO 4,7 C 7,7 C 0,0 km/h
07.05.2016 05:00 6,9 C 82 % 1009,5 hPa 0,0 l/m 0,0 km/h O-SO 4,0 C 6,9 C 0,0 km/h
07.05.2016 06:00 7,3 C 84 % 1009,7 hPa 0,0 l/m 0,0 km/h SO 4,8 C 7,3 C 0,0 km/h
07.05.2016 07:00 11,7 C 84 % 1009,9 hPa 0,0 l/m 0,0 km/h SO 9,1 C 11,7 C 0,0 km/h
07.05.2016 08:00 18,4 C 64 % 1009,8 hPa 0,0 l/m 0,0 km/h O-SO 11,5 C 18,4 C 0,0 km/h
07.05.2016 09:00 24,6 C 47 % 1009,3 hPa 0,0 l/m 0,0 km/h W 12,5 C 24,6 C 0,0 km/h
07.05.2016 10:00 25,3 C 41 % 1009,2 hPa 0,0 l/m 0,0 km/h W 11,1 C 25,3 C 0,0 km/h
07.05.2016 11:00 24,8 C 44 % 1008,8 hPa 0,0 l/m 11,7 km/h W-NW 11,7 C 23,6 C 6,5 km/h
07.05.2016 12:00 24,8 C 47 % 1007,8 hPa 0,0 l/m 2,6 km/h W 12,7 C 24,8 C 1,4 km/h
07.05.2016 13:00 26,5 C 42 % 1007,3 hPa 0,0 l/m 0,0 km/h W 12,5 C 26,5 C 0,0 km/h
07.05.2016 14:00 27,8 C 39 % 1006,9 hPa 0,0 l/m 8,4 km/h W-SW 12,6 C 27,5 C 4,7 km/h
07.05.2016 15:00 26,5 C 46 % 1006,6 hPa 0,0 l/m 22,7 km/h N-NW 13,9 C 24,4 C 12,6 km/h
07.05.2016 16:00 29,6 C 37 % 1006,2 hPa 0,0 l/m 0,0 km/h N-NW 13,3 C 29,6 C 0,0 km/h
07.05.2016 17:00 29,0 C 33 % 1005,7 hPa 0,0 l/m 0,0 km/h W-NW 11,1 C 29,0 C 0,0 km/h
07.05.2016 18:00 29,1 C 38 % 1005,4 hPa 0,0 l/m 0,0 km/h W-NW 13,3 C 29,1 C 0,0 km/h
07.05.2016 19:00 24,1 C 48 % 1005,7 hPa 0,0 l/m 0,6 km/h N-NO 12,4 C 24,1 C 0,4 km/h
07.05.2016 20:00 18,1 C 57 % 1006,1 hPa 0,0 l/m 0,0 km/h O-SO 9,4 C 18,1 C 0,0 km/h
07.05.2016 21:00 14,1 C 64 % 1006,5 hPa 0,0 l/m 0,0 km/h SO 7,4 C 14,1 C 0,0 km/h
07.05.2016 22:00 12,5 C 68 % 1006,6 hPa 0,0 l/m 0,0 km/h SO 6,8 C 12,5 C 0,0 km/h
07.05.2016 23:00 12,5 C 68 % 1006,8 hPa 0,0 l/m 0,0 km/h NO 6,8 C 12,5 C 0,0 km/h
08.05.2016 00:00 11,6 C 70 % 1007,0 hPa 0,0 l/m 0,0 km/h NO 6,3 C 11,6 C 0,0 km/h
08.05.2016 01:00 11,6 C 71 % 1007,0 hPa 0,0 l/m 0,0 km/h O-SO 6,5 C 11,6 C 0,0 km/h
08.05.2016 02:00 11,2 C 70 % 1007,1 hPa 0,0 l/m 0,0 km/h O-SO 5,9 C 11,2 C 0,0 km/h
08.05.2016 03:00 9,8 C 76 % 1007,1 hPa 0,0 l/m 0,0 km/h O-NO 5,8 C 9,8 C 0,0 km/h
08.05.2016 04:00 8,4 C 78 % 1007,3 hPa 0,0 l/m 0,0 km/h O-NO 4,8 C 8,4 C 0,0 km/h
08.05.2016 05:00 8,5 C 80 % 1007,4 hPa 0,0 l/m 0,0 km/h O-NO 5,3 C 8,5 C 0,0 km/h
08.05.2016 06:00 7,5 C 82 % 1007,8 hPa 0,0 l/m 0,0 km/h NO 4,6 C 7,5 C 0,0 km/h
08.05.2016 07:00 11,9 C 84 % 1008,4 hPa 0,0 l/m 0,0 km/h O-NO 9,3 C 11,9 C 0,0 km/h
08.05.2016 08:00 22,3 C 51 % 1008,4 hPa 0,0 l/m 0,0 km/h N-NW 11,7 C 22,3 C 0,0 km/h
08.05.2016 09:00 23,5 C 47 % 1008,4 hPa 0,0 l/m 0,0 km/h W 11,5 C 23,5 C 0,0 km/h
08.05.2016 10:00 25,0 C 43 % 1008,1 hPa 0,0 l/m 0,0 km/h W 11,5 C 25,0 C 0,0 km/h
08.05.2016 11:00 24,5 C 47 % 1007,8 hPa 0,0 l/m 1,9 km/h W-SW 12,4 C 24,5 C 1,1 km/h
08.05.2016 12:00 25,0 C 45 % 1007,4 hPa 0,0 l/m 0,0 km/h W-NW 12,2 C 25,0 C 0,0 km/h
08.05.2016 13:00 27,4 C 40 % 1006,9 hPa 0,0 l/m 0,0 km/h W 12,6 C 27,4 C 0,0 km/h
08.05.2016 14:00 28,0 C 41 % 1006,3 hPa 0,0 l/m 9,1 km/h W 13,5 C 27,6 C 5,0 km/h
08.05.2016 15:00 29,6 C 38 % 1005,8 hPa 0,0 l/m 4,5 km/h N 13,8 C 29,6 C 2,5 km/h
08.05.2016 16:00 28,9 C 37 % 1005,6 hPa 0,0 l/m 0,0 km/h SO 12,7 C 28,9 C 0,0 km/h
08.05.2016 17:00 31,6 C 26 % 1005,5 hPa 0,0 l/m 14,3 km/h SO 9,7 C 31,3 C 7,9 km/h
08.05.2016 18:00 31,5 C 27 % 1005,4 hPa 0,0 l/m 9,1 km/h O-SO 10,2 C 31,4 C 5,0 km/h
08.05.2016 19:00 24,9 C 33 % 1005,2 hPa 0,0 l/m 7,1 km/h O-NO 7,5 C 24,7 C 4,0 km/h
08.05.2016 20:00 20,5 C 41 % 1005,8 hPa 0,0 l/m 0,0 km/h O 6,8 C 20,5 C 0,0 km/h
08.05.2016 21:00 18,2 C 46 % 1006,3 hPa 0,0 l/m 0,0 km/h N-NO 6,4 C 18,2 C 0,0 km/h
08.05.2016 22:00 14,4 C 56 % 1006,8 hPa 0,0 l/m 0,0 km/h O-SO 5,7 C 14,4 C 0,0 km/h
08.05.2016 23:00 13,8 C 59 % 1006,7 hPa 0,0 l/m 0,0 km/h N-NO 5,9 C 13,8 C 0,0 km/h
Min-Datum _ 04.05.16 05.05.16 08.05.16 - 02.05.16 - 05.05.16 04.05.16 02.05.16
_ Min-Zeit 05:41 18:41 19:41 - 00:41 - 05:41 05:41 00:41
Minimum _ 1,6 C 26 % 1005,2 hPa - 0,0 km/h - -2,2 C 1,6 C 0,0 km/h
Max-Datum _ 08.05.16 04.05.16 04.05.16 03.05.16 05.05.16 - 07.05.16 06.05.16 05.05.16
_ Max-Zeit 17:41 02:41 07:41 19:41 12:41 - 15:41 17:41 12:41
Maximum _ 31,6 C 87 % 1025,4 hPa 3,3 l/m 27,9 km/h
SO
- 13,9 C 31,4 C 15,5 km/h
SO
Durchschnitt _ 15,3 C 61 % 1015,3 hPa #6,6 l/m 1,9 km/h O-SO 6,9 C 15,1 C 1,0 km/h
www.sexauwetter.de